Time;durP1;ratioP1;P1;durP2;ratioP2;P2;SDS_P1;SDS_P2;PMS_P1;PMS_P2;Temp;Humidity;BMP_temperature;BMP_pressure;BME280_temperature;BME280_humidity;BME280_pressure;Samples;Min_cycle;Max_cycle;Signal;HPM_P1;HPM_P2
2022/05/10 00:00:34;;;;;;;;;;;;;;;;;;5054379;28;19917;-87
2022/05/10 00:03:00;;;;;;;;;;;;;;;;;;5054317;28;19920;-87
2022/05/10 00:05:27;;;;;;;;;;;;;;;;;;5053907;28;19913;-87
2022/05/10 00:07:52;;;;;;;;;;;;;;;;;;5036965;28;19913;-87
2022/05/10 00:10:18;;;;;;;;;;;;;;;;;;5057278;28;19920;-86
2022/05/10 00:12:43;;;;;;;;;;;;;;;;;;5065780;28;19940;-86
2022/05/10 00:15:09;;;;;;;;;;;;;;;;;;5068919;28;19917;-87
2022/05/10 00:17:35;;;;;;;;;;;;;;;;;;5068895;28;20249;-85
2022/05/10 00:20:00;;;;;;;;;;;;;;;;;;5071979;28;19913;-87
2022/05/10 00:22:25;;;;;;;;;;;;;;;;;;5055333;28;20318;-87
2022/05/10 00:24:51;;;;;;;;;;;;;;;;;;5071479;28;20315;-88
2022/05/10 00:27:17;;;;;;;;;;;;;;;;;;5058433;28;19913;-88
2022/05/10 00:29:42;;;;;;;;;;;;;;;;;;5058883;28;20356;-86
2022/05/10 00:32:07;;;;;;;;;;;;;;;;;;5060585;28;19916;-85
2022/05/10 00:34:34;;;;;;;;;;;;;;;;;;5056566;28;19978;-87
2022/05/10 00:37:00;;;;;;;;;;;;;;;;;;5059714;28;19920;-88
2022/05/10 00:39:25;;;;;;;;;;;;;;;;;;5056610;28;19970;-88
2022/05/10 00:42:11;;;;;;;;;;;;;;;;;;5061723;28;19978;-87
2022/05/10 00:44:56;;;;;;;;;;;;;;;;;;5058804;28;20318;-86
2022/05/10 00:47:26;;;;;;;;;;;;;;;;;;5059209;28;19913;-88
2022/05/10 00:49:59;;;;;;;;;;;;;;;;;;5059581;28;20575;-85
2022/05/10 00:52:29;;;;;;;;;;;;;;;;;;5056470;28;19920;-86
2022/05/10 00:55:11;;;;;;;;;;;;;;;;;;5059181;28;19993;-86
2022/05/10 00:57:36;;;;;;;;;;;;;;;;;;5066993;28;20241;-88
2022/05/10 01:00:09;;;;;;;;;;;;;;;;;;5060126;28;19913;-87
2022/05/10 01:02:39;;;;;;;;;;;;;;;;;;5058179;28;20046;-88
2022/05/10 01:05:08;;;;;;;;;;;;;;;;;;5059780;28;19946;-87
2022/05/10 01:07:38;;;;;;;;;;;;;;;;;;5061540;28;19919;-86
2022/05/10 01:10:17;;;;;;;;;;;;;;;;;;5056840;28;19913;-86
2022/05/10 01:12:44;;;;;;;;;;;;;;;;;;5057108;28;19986;-87
2022/05/10 01:15:20;;;;;;;;;;;;;;;;;;5058836;28;20245;-84
2022/05/10 01:17:46;;;;;;;;;;;;;;;;;;5061072;28;20311;-87
2022/05/10 01:20:11;;;;;;;;;;;;;;;;;;5056856;28;19938;-88
2022/05/10 01:22:42;;;;;;;;;;;;;;;;;;5055572;28;19974;-87
2022/05/10 01:25:37;;;;;;;;;;;;;;;;;;5056929;28;19920;-86
2022/05/10 01:28:06;;;;;;;;;;;;;;;;;;5002581;28;19914;-86
2022/05/10 01:30:32;;;;;;;;;;;;;;;;;;5056669;28;19916;-86
2022/05/10 01:35:43;;;;;;;;;;;;;;;;;;5056464;28;20246;-87
2022/05/10 01:38:20;;;;;;;;;;;;;;;;;;5060259;28;19967;-86
2022/05/10 01:40:46;;;;;;;;;;;;;;;;;;5057007;28;19920;-87
2022/05/10 01:43:12;;;;;;;;;;;;;;;;;;5055477;28;20278;-87
2022/05/10 01:45:49;;;;;;;;;;;;;;;;;;5056364;28;19913;-87
2022/05/10 01:48:18;;;;;;;;;;;;;;;;;;5057063;28;19915;-86
2022/05/10 01:50:43;;;;;;;;;;;;;;;;;;5056923;28;19916;-86
2022/05/10 01:53:08;;;;;;;;;;;;;;;;;;5056078;28;20215;-87
2022/05/10 01:55:36;;;;;;;;;;;;;;;;;;5056362;28;20379;-86
2022/05/10 01:58:07;;;;;;;;;;;;;;;;;;5059272;28;19973;-86
2022/05/10 02:00:33;;;;;;;;;;;;;;;;;;5054996;28;19940;-86
2022/05/10 02:02:59;;;;;;;;;;;;;;;;;;5056191;28;19935;-87
2022/05/10 02:05:31;;;;;;;;;;;;;;;;;;5056014;28;20003;-87
2022/05/10 02:07:59;;;;;;;;;;;;;;;;;;5054904;28;19919;-88
2022/05/10 02:10:27;;;;;;;;;;;;;;;;;;5055608;28;20222;-88
2022/05/10 02:12:55;;;;;;;;;;;;;;;;;;5055825;28;19913;-87
2022/05/10 02:15:41;;;;;;;;;;;;;;;;;;5054539;28;19912;-87
2022/05/10 02:18:27;;;;;;;;;;;;;;;;;;5057924;28;20407;-87
2022/05/10 02:20:58;;;;;;;;;;;;;;;;;;5056035;28;20323;-86
2022/05/10 02:24:02;;;;;;;;;;;;;;;;;;5055444;28;19919;-88
2022/05/10 02:26:28;;;;;;;;;;;;;;;;;;4994331;28;19924;-87
2022/05/10 02:29:17;;;;;;;;;;;;;;;;;;4977597;28;19913;-87
2022/05/10 02:34:32;;;;;;;;;;;;;;;;;;5055313;28;19919;-87
2022/05/10 02:36:57;;;;;;;;;;;;;;;;;;5054291;28;19920;-86
2022/05/10 02:39:22;;;;;;;;;;;;;;;;;;5056115;28;19913;-87
2022/05/10 02:41:48;;;;;;;;;;;;;;;;;;5054266;28;19912;-86
2022/05/10 02:44:13;;;;;;;;;;;;;;;;;;5071292;28;19926;-87
2022/05/10 02:46:38;;;;;;;;;;;;;;;;;;5054499;28;20007;-86
2022/05/10 02:49:03;;;;;;;;;;;;;;;;;;5058142;28;19971;-85
2022/05/10 02:51:29;;;;;;;;;;;;;;;;;;5058841;28;19919;-87
2022/05/10 02:53:54;;;;;;;;;;;;;;;;;;5058399;28;19923;-86
2022/05/10 02:56:21;;;;;;;;;;;;;;;;;;5057145;28;19913;-87
2022/05/10 02:58:49;;;;;;;;;;;;;;;;;;5054794;28;20308;-86
2022/05/10 03:01:20;;;;;;;;;;;;;;;;;;5055759;28;19955;-86
2022/05/10 03:03:46;;;;;;;;;;;;;;;;;;5055686;28;20007;-87
2022/05/10 03:06:18;;;;;;;;;;;;;;;;;;5053500;28;19952;-87
2022/05/10 03:08:45;;;;;;;;;;;;;;;;;;5053634;28;19935;-86
2022/05/10 03:11:10;;;;;;;;;;;;;;;;;;5053464;28;19976;-87
2022/05/10 03:13:36;;;;;;;;;;;;;;;;;;5053066;28;19917;-87
2022/05/10 03:16:01;;;;;;;;;;;;;;;;;;5054837;28;19919;-86
2022/05/10 03:18:27;;;;;;;;;;;;;;;;;;5058261;28;19963;-86
2022/05/10 03:20:52;;;;;;;;;;;;;;;;;;5058624;28;20318;-86
2022/05/10 03:23:18;;;;;;;;;;;;;;;;;;5053741;28;19920;-86
2022/05/10 03:25:43;;;;;;;;;;;;;;;;;;5054939;28;19962;-86
2022/05/10 03:28:08;;;;;;;;;;;;;;;;;;5054320;28;19917;-87
2022/05/10 03:30:34;;;;;;;;;;;;;;;;;;5055388;28;19916;-87
2022/05/10 03:32:59;;;;;;;;;;;;;;;;;;5055542;28;19912;-87
2022/05/10 03:35:26;;;;;;;;;;;;;;;;;;5037581;28;19913;-86
2022/05/10 03:37:52;;;;;;;;;;;;;;;;;;5055655;28;19913;-85
2022/05/10 03:40:17;;;;;;;;;;;;;;;;;;5059447;28;19924;-85
2022/05/10 03:42:43;;;;;;;;;;;;;;;;;;5070071;28;20017;-86
2022/05/10 03:45:09;;;;;;;;;;;;;;;;;;5058061;28;19916;-86
2022/05/10 03:47:34;;;;;;;;;;;;;;;;;;5059817;28;19939;-87
2022/05/10 03:49:59;;;;;;;;;;;;;;;;;;5059391;28;19944;-87
2022/05/10 03:52:25;;;;;;;;;;;;;;;;;;5058222;28;19913;-85
2022/05/10 03:54:50;;;;;;;;;;;;;;;;;;5058509;28;19948;-86
2022/05/10 03:57:15;;;;;;;;;;;;;;;;;;5058810;28;20390;-87
2022/05/10 03:59:44;;;;;;;;;;;;;;;;;;5076211;28;19944;-84
2022/05/10 04:02:10;;;;;;;;;;;;;;;;;;5077762;28;19907;-86
2022/05/10 04:04:35;;;;;;;;;;;;;;;;;;5070638;28;19916;-84
2022/05/10 04:07:01;;;;;;;;;;;;;;;;;;5068658;28;19919;-81
2022/05/10 04:09:26;;;;;;;;;;;;;;;;;;5073469;28;19967;-82
2022/05/10 04:11:51;;;;;;;;;;;;;;;;;;5057708;28;19975;-84
2022/05/10 04:14:17;;;;;;;;;;;;;;;;;;5057861;28;19916;-83
2022/05/10 04:16:42;;;;;;;;;;;;;;;;;;5058210;28;19913;-83
2022/05/10 04:19:08;;;;;;;;;;;;;;;;;;5060930;28;19896;-83
2022/05/10 04:21:34;;;;;;;;;;;;;;;;;;5057753;28;20355;-84
2022/05/10 04:23:59;;;;;;;;;;;;;;;;;;5057485;28;20235;-84
2022/05/10 04:26:25;;;;;;;;;;;;;;;;;;5055973;28;19935;-84
2022/05/10 04:28:50;;;;;;;;;;;;;;;;;;5057432;28;20323;-84
2022/05/10 04:31:15;;;;;;;;;;;;;;;;;;5057437;28;19913;-84
2022/05/10 04:33:41;;;;;;;;;;;;;;;;;;5062481;28;19912;-86
2022/05/10 04:36:06;;;;;;;;;;;;;;;;;;5058180;28;19913;-84
2022/05/10 04:38:32;;;;;;;;;;;;;;;;;;5058024;28;20250;-84
2022/05/10 04:43:41;;;;;;;;;;;;;;;;;;5056864;28;20296;-80
2022/05/10 04:46:06;;;;;;;;;;;;;;;;;;5055351;28;19913;-80
2022/05/10 04:48:33;;;;;;;;;;;;;;;;;;5056116;28;20342;-82
2022/05/10 04:50:59;;;;;;;;;;;;;;;;;;5054415;28;19912;-80
2022/05/10 04:53:27;;;;;;;;;;;;;;;;;;5049188;28;19912;-82
2022/05/10 04:56:06;;;;;;;;;;;;;;;;;;5050360;28;19949;-78
2022/05/10 04:58:33;;;;;;;;;;;;;;;;;;5051778;28;19953;-80
2022/05/10 05:01:43;;;;;;;;;;;;;;;;;;5041205;28;20449;-81
2022/05/10 05:04:10;;;;;;;;;;;;;;;;;;5014594;28;20444;-82
2022/05/10 05:06:39;;;;;;;;;;;;;;;;;;5041198;28;19917;-80
2022/05/10 05:09:05;;;;;;;;;;;;;;;;;;5050320;28;20004;-81
2022/05/10 05:11:33;;;;;;;;;;;;;;;;;;5039899;28;20008;-80
2022/05/10 05:13:59;;;;;;;;;;;;;;;;;;5049559;28;19916;-80
2022/05/10 05:16:27;;;;;;;;;;;;;;;;;;5053609;28;20251;-81
2022/05/10 05:18:52;;;;;;;;;;;;;;;;;;5057878;28;19921;-82
2022/05/10 05:21:18;;;;;;;;;;;;;;;;;;5043097;28;19924;-80
2022/05/10 05:23:43;;;;;;;;;;;;;;;;;;5052408;28;19917;-79
2022/05/10 05:26:09;;;;;;;;;;;;;;;;;;5054515;28;19916;-84
2022/05/10 05:28:34;;;;;;;;;;;;;;;;;;5051055;28;19917;-81
2022/05/10 05:31:00;;;;;;;;;;;;;;;;;;5047599;28;19924;-85
2022/05/10 05:33:25;;;;;;;;;;;;;;;;;;5044061;28;19916;-84
2022/05/10 05:35:51;;;;;;;;;;;;;;;;;;5054004;28;19923;-83
2022/05/10 05:38:16;;;;;;;;;;;;;;;;;;5046315;28;19994;-83
2022/05/10 05:40:42;;;;;;;;;;;;;;;;;;5055299;28;19935;-81
2022/05/10 05:43:07;;;;;;;;;;;;;;;;;;5053879;28;19921;-84
2022/05/10 05:45:32;;;;;;;;;;;;;;;;;;5049003;28;19924;-83
2022/05/10 05:48:19;;;;;;;;;;;;;;;;;;5045911;28;20000;-84
2022/05/10 05:50:47;;;;;;;;;;;;;;;;;;5033330;28;20223;-83
2022/05/10 05:53:13;;;;;;;;;;;;;;;;;;5047215;28;19917;-83
2022/05/10 05:55:40;;;;;;;;;;;;;;;;;;5052663;28;19916;-83
2022/05/10 05:58:06;;;;;;;;;;;;;;;;;;5049962;28;20015;-85
2022/05/10 06:00:32;;;;;;;;;;;;;;;;;;5081819;28;19917;-84
2022/05/10 06:02:57;;;;;;;;;;;;;;;;;;5061355;28;19921;-81
2022/05/10 06:05:25;;;;;;;;;;;;;;;;;;5052207;28;20003;-82
2022/05/10 06:07:51;;;;;;;;;;;;;;;;;;5047638;28;19916;-84
2022/05/10 06:10:16;;;;;;;;;;;;;;;;;;5051114;28;20015;-83
2022/05/10 06:12:42;;;;;;;;;;;;;;;;;;5052088;28;21106;-83
2022/05/10 06:15:11;;;;;;;;;;;;;;;;;;5050765;28;19917;-79
2022/05/10 06:17:37;;;;;;;;;;;;;;;;;;5054274;28;19916;-82
2022/05/10 06:20:04;;;;;;;;;;;;;;;;;;5061550;28;19921;-84
2022/05/10 06:22:30;;;;;;;;;;;;;;;;;;5054425;28;20312;-84
2022/05/10 06:24:56;;;;;;;;;;;;;;;;;;5066654;28;19970;-76
2022/05/10 06:27:21;;;;;;;;;;;;;;;;;;5049636;28;20002;-74
2022/05/10 06:32:21;;;;;;;;;;;;;;;;;;5066344;22;20019;-74
2022/05/10 06:40:33;;;;;;;;;;;;;;;;;;5044891;22;19948;-79
2022/05/10 06:43:01;;;;;;;;;;;;;;;;;;5044279;28;19924;-84
2022/05/10 06:48:40;;;;;;;;;;;;;;;;;;5046717;22;20319;-82
2022/05/10 06:51:06;;;;;;;;;;;;;;;;;;5038007;28;19917;-78
2022/05/10 06:56:15;;;;;;;;;;;;;;;;;;5077181;22;19939;-77
2022/05/10 06:58:41;;;;;;;;;;;;;;;;;;5047922;28;19916;-79
2022/05/10 07:01:10;;;;;;;;;;;;;;;;;;5042019;28;20230;-74
2022/05/10 07:03:44;;;;;;;;;;;;;;;;;;5043061;28;19917;-81
2022/05/10 07:06:11;;;;;;;;;;;;;;;;;;5049094;28;19967;-80
2022/05/10 07:08:39;;;;;;;;;;;;;;;;;;5045784;28;19921;-84
2022/05/10 07:11:04;;;;;;;;;;;;;;;;;;5040290;28;19917;-79
2022/05/10 07:13:51;;;;;;;;;;;;;;;;;;5040841;28;20297;-78
2022/05/10 07:16:37;;;;;;;;;;;;;;;;;;5043752;28;19916;-78
2022/05/10 07:19:02;;;;;;;;;;;;;;;;;;5045377;28;19924;-77
2022/05/10 07:21:28;;;;;;;;;;;;;;;;;;5051837;28;19916;-77
2022/05/10 07:23:53;;;;;;;;;;;;;;;;;;5046515;28;19916;-78
2022/05/10 07:26:21;;;;;;;;;;;;;;;;;;5048387;28;19917;-78
2022/05/10 07:28:47;;;;;;;;;;;;;;;;;;5046642;28;19917;-76
2022/05/10 07:31:12;;;;;;;;;;;;;;;;;;5044975;28;19985;-75
2022/05/10 07:33:38;;;;;;;;;;;;;;;;;;5050462;28;20688;-75
2022/05/10 07:36:24;;;;;;;;;;;;;;;;;;5049661;28;20012;-77
2022/05/10 07:38:50;;;;;;;;;;;;;;;;;;5053042;28;20007;-78
2022/05/10 07:41:18;;;;;;;;;;;;;;;;;;5064600;28;19991;-77
2022/05/10 07:43:44;;;;;;;;;;;;;;;;;;5035928;28;19917;-77
2022/05/10 07:46:09;;;;;;;;;;;;;;;;;;5059883;28;19997;-79
2022/05/10 07:48:35;;;;;;;;;;;;;;;;;;5056485;28;19916;-75
2022/05/10 07:51:02;;;;;;;;;;;;;;;;;;5053157;28;20242;-75
2022/05/10 07:53:27;;;;;;;;;;;;;;;;;;5053636;28;19921;-77
2022/05/10 07:55:53;;;;;;;;;;;;;;;;;;5053489;28;20648;-76
2022/05/10 07:58:19;;;;;;;;;;;;;;;;;;5061710;28;20409;-78
2022/05/10 08:00:44;;;;;;;;;;;;;;;;;;5057919;28;19928;-77
2022/05/10 08:03:14;;;;;;;;;;;;;;;;;;5048393;28;20246;-79
2022/05/10 08:05:40;;;;;;;;;;;;;;;;;;5050960;28;19916;-78
2022/05/10 08:08:06;;;;;;;;;;;;;;;;;;5055928;28;19977;-77
2022/05/10 08:10:32;;;;;;;;;;;;;;;;;;5049557;28;20249;-76
2022/05/10 08:12:57;;;;;;;;;;;;;;;;;;5052650;28;19970;-77
2022/05/10 08:15:23;;;;;;;;;;;;;;;;;;5054076;28;20254;-77
2022/05/10 08:17:48;;;;;;;;;;;;;;;;;;5060204;28;20011;-78
2022/05/10 08:20:14;;;;;;;;;;;;;;;;;;5058205;28;19917;-76
2022/05/10 08:22:39;;;;;;;;;;;;;;;;;;5051433;28;19927;-75
2022/05/10 08:25:05;;;;;;;;;;;;;;;;;;5056987;28;19924;-79
2022/05/10 08:27:30;;;;;;;;;;;;;;;;;;5061655;28;19943;-75
2022/05/10 08:29:56;;;;;;;;;;;;;;;;;;5060951;28;19912;-76
2022/05/10 08:32:21;;;;;;;;;;;;;;;;;;5064300;28;19920;-77
2022/05/10 08:34:47;;;;;;;;;;;;;;;;;;5065002;28;20335;-76
2022/05/10 08:37:13;;;;;;;;;;;;;;;;;;5065916;28;20333;-78
2022/05/10 08:39:39;;;;;;;;;;;;;;;;;;5061977;28;19970;-77
2022/05/10 08:42:13;;;;;;;;;;;;;;;;;;5067632;28;19916;-78
2022/05/10 08:44:38;;;;;;;;;;;;;;;;;;5061143;28;19917;-76
2022/05/10 08:47:06;;;;;;;;;;;;;;;;;;5046503;28;20183;-77
2022/05/10 08:49:35;;;;;;;;;;;;;;;;;;5040711;28;19917;-78
2022/05/10 08:52:01;;;;;;;;;;;;;;;;;;5038919;28;19916;-78
2022/05/10 08:54:26;;;;;;;;;;;;;;;;;;5042562;28;20065;-77
2022/05/10 08:56:53;;;;;;;;;;;;;;;;;;5049563;28;19932;-78
2022/05/10 08:59:37;;;;;;;;;;;;;;;;;;5047834;28;19939;-77
2022/05/10 09:02:03;;;;;;;;;;;;;;;;;;5035453;28;19941;-78
2022/05/10 09:04:29;;;;;;;;;;;;;;;;;;5034620;28;19920;-78
2022/05/10 09:07:00;;;;;;;;;;;;;;;;;;5050808;28;19924;-78
2022/05/10 09:09:27;;;;;;;;;;;;;;;;;;5034550;28;19912;-77
2022/05/10 09:11:55;;;;;;;;;;;;;;;;;;5050108;28;20294;-78
2022/05/10 09:14:28;;;;;;;;;;;;;;;;;;5052474;28;19913;-78
2022/05/10 09:16:53;;;;;;;;;;;;;;;;;;5051629;28;19982;-80
2022/05/10 09:19:18;;;;;;;;;;;;;;;;;;5051551;28;19921;-78
2022/05/10 09:21:49;;;;;;;;;;;;;;;;;;5053131;28;19971;-78
2022/05/10 09:24:31;;;;;;;;;;;;;;;;;;5053817;28;20477;-77
2022/05/10 09:27:01;;;;;;;;;;;;;;;;;;5055625;28;19922;-77
2022/05/10 09:29:34;;;;;;;;;;;;;;;;;;5054659;28;20322;-76
2022/05/10 09:34:58;;;;;;;;;;;;;;;;;;5044005;28;19947;-78
2022/05/10 09:37:25;;;;;;;;;;;;;;;;;;5036203;28;20326;-78
2022/05/10 09:39:56;;;;;;;;;;;;;;;;;;5034611;28;20012;-76
2022/05/10 09:42:29;;;;;;;;;;;;;;;;;;5042313;28;19924;-79
2022/05/10 09:45:17;;;;;;;;;;;;;;;;;;5031437;28;20357;-77
2022/05/10 09:48:04;;;;;;;;;;;;;;;;;;5020779;28;20074;-76
2022/05/10 09:50:35;;;;;;;;;;;;;;;;;;5034824;28;19917;-79
2022/05/10 09:53:08;;;;;;;;;;;;;;;;;;5049625;28;19974;-76
2022/05/10 09:55:33;;;;;;;;;;;;;;;;;;5053832;28;19916;-80
2022/05/10 09:58:01;;;;;;;;;;;;;;;;;;5049754;28;19924;-81
2022/05/10 10:00:40;;;;;;;;;;;;;;;;;;5050848;28;19919;-77
2022/05/10 10:03:05;;;;;;;;;;;;;;;;;;5054121;28;19919;-77
2022/05/10 10:05:31;;;;;;;;;;;;;;;;;;5054692;28;19984;-77
2022/05/10 10:07:57;;;;;;;;;;;;;;;;;;5053548;28;19908;-77
2022/05/10 10:10:34;;;;;;;;;;;;;;;;;;5052088;28;20280;-78
2022/05/10 10:13:20;;;;;;;;;;;;;;;;;;5035244;28;19955;-80
2022/05/10 10:15:45;;;;;;;;;;;;;;;;;;5051439;28;19909;-77
2022/05/10 10:18:12;;;;;;;;;;;;;;;;;;5052385;28;20328;-79
2022/05/10 10:20:57;;;;;;;;;;;;;;;;;;5053095;28;19916;-75
2022/05/10 10:23:24;;;;;;;;;;;;;;;;;;5053472;28;19939;-76
2022/05/10 10:25:49;;;;;;;;;;;;;;;;;;5051224;28;19948;-76
2022/05/10 10:28:18;;;;;;;;;;;;;;;;;;5051205;28;20038;-76
2022/05/10 10:30:44;;;;;;;;;;;;;;;;;;5051303;28;19913;-77
2022/05/10 10:33:17;;;;;;;;;;;;;;;;;;5052941;28;20318;-77
2022/05/10 10:35:44;;;;;;;;;;;;;;;;;;5050731;28;19913;-77
2022/05/10 10:38:21;;;;;;;;;;;;;;;;;;5045597;28;21240;-79
2022/05/10 10:40:49;;;;;;;;;;;;;;;;;;5051200;28;19968;-77
2022/05/10 10:43:17;;;;;;;;;;;;;;;;;;5045349;28;20221;-77
2022/05/10 10:45:47;;;;;;;;;;;;;;;;;;5045453;28;19924;-79
2022/05/10 10:48:34;;;;;;;;;;;;;;;;;;5047510;28;20222;-77
2022/05/10 10:50:59;;;;;;;;;;;;;;;;;;5046242;28;19920;-77
2022/05/10 10:53:25;;;;;;;;;;;;;;;;;;5049156;28;19913;-76
2022/05/10 10:56:11;;;;;;;;;;;;;;;;;;5048053;28;19916;-77
2022/05/10 10:58:45;;;;;;;;;;;;;;;;;;5048043;28;19917;-76
2022/05/10 11:01:22;;;;;;;;;;;;;;;;;;5047814;28;19921;-78
2022/05/10 11:04:06;;;;;;;;;;;;;;;;;;5050574;28;19963;-77
2022/05/10 11:06:34;;;;;;;;;;;;;;;;;;5049171;28;20224;-76
2022/05/10 11:08:59;;;;;;;;;;;;;;;;;;5031634;28;19916;-77
2022/05/10 11:11:34;;;;;;;;;;;;;;;;;;5049721;28;19912;-77
2022/05/10 11:14:05;;;;;;;;;;;;;;;;;;5052117;28;19912;-76
2022/05/10 11:16:30;;;;;;;;;;;;;;;;;;5053181;28;19920;-76
2022/05/10 11:18:59;;;;;;;;;;;;;;;;;;5051122;28;19943;-77
2022/05/10 11:21:39;;;;;;;;;;;;;;;;;;5052322;28;20053;-77
2022/05/10 11:24:04;;;;;;;;;;;;;;;;;;5052727;28;19948;-77
2022/05/10 11:26:48;;;;;;;;;;;;;;;;;;5053071;28;19959;-77
2022/05/10 11:29:14;;;;;;;;;;;;;;;;;;5033840;28;20283;-77
2022/05/10 11:31:56;;;;;;;;;;;;;;;;;;5033345;28;20311;-77
2022/05/10 11:34:34;;;;;;;;;;;;;;;;;;5048934;28;19963;-77
2022/05/10 11:37:00;;;;;;;;;;;;;;;;;;5033752;28;19913;-77
2022/05/10 11:39:44;;;;;;;;;;;;;;;;;;5034338;28;19913;-76
2022/05/10 11:42:34;;;;;;;;;;;;;;;;;;5033296;28;19923;-75
2022/05/10 11:45:18;;;;;;;;;;;;;;;;;;5034391;28;20243;-79
2022/05/10 11:48:13;;;;;;;;;;;;;;;;;;5032525;28;19913;-78
2022/05/10 11:53:44;;;;;;;;;;;;;;;;;;5033936;28;19936;-77
2022/05/10 11:56:09;;;;;;;;;;;;;;;;;;5032702;28;19924;-78
2022/05/10 11:58:35;;;;;;;;;;;;;;;;;;5048403;28;19913;-78
2022/05/10 12:01:01;;;;;;;;;;;;;;;;;;5049051;28;19967;-76
2022/05/10 12:03:36;;;;;;;;;;;;;;;;;;5048773;28;19913;-78
2022/05/10 12:06:23;;;;;;;;;;;;;;;;;;5038450;28;19920;-78
2022/05/10 12:08:48;;;;;;;;;;;;;;;;;;5037584;28;19978;-79
2022/05/10 12:11:32;;;;;;;;;;;;;;;;;;5030937;28;20477;-76
2022/05/10 12:22:14;;;;;;;;;;;;;;;;;;5055698;28;19963;-79
2022/05/10 12:24:44;;;;;;;;;;;;;;;;;;5055861;28;20294;-78
2022/05/10 12:27:12;;;;;;;;;;;;;;;;;;5059377;28;19913;-79
2022/05/10 12:29:37;;;;;;;;;;;;;;;;;;5053998;28;20305;-79
2022/05/10 12:32:21;;;;;;;;;;;;;;;;;;5055986;28;19944;-80
2022/05/10 12:34:52;;;;;;;;;;;;;;;;;;5055511;28;20023;-78
2022/05/10 12:37:33;;;;;;;;;;;;;;;;;;5056358;28;19924;-81
2022/05/10 12:39:58;;;;;;;;;;;;;;;;;;5056889;28;20249;-80
2022/05/10 12:42:31;;;;;;;;;;;;;;;;;;5056857;28;19912;-79
2022/05/10 12:45:15;;;;;;;;;;;;;;;;;;5040632;28;19913;-79
2022/05/10 12:47:44;;;;;;;;;;;;;;;;;;5057135;28;19916;-80
2022/05/10 12:50:18;;;;;;;;;;;;;;;;;;5054989;28;20250;-80
2022/05/10 12:52:47;;;;;;;;;;;;;;;;;;5055035;28;19947;-80
2022/05/10 12:55:25;;;;;;;;;;;;;;;;;;5054510;28;19974;-79
2022/05/10 12:57:58;;;;;;;;;;;;;;;;;;5055598;28;19999;-81
2022/05/10 13:00:24;;;;;;;;;;;;;;;;;;5055533;28;20341;-81
2022/05/10 13:02:53;;;;;;;;;;;;;;;;;;5056656;28;19920;-80
2022/05/10 13:05:21;;;;;;;;;;;;;;;;;;5057525;28;19912;-79
2022/05/10 13:07:53;;;;;;;;;;;;;;;;;;5058529;28;19920;-80
2022/05/10 13:10:21;;;;;;;;;;;;;;;;;;5055557;28;19913;-80
2022/05/10 13:12:59;;;;;;;;;;;;;;;;;;5056997;28;20246;-80
2022/05/10 13:15:26;;;;;;;;;;;;;;;;;;5057224;28;20582;-80
2022/05/10 13:17:52;;;;;;;;;;;;;;;;;;5056920;28;19913;-80
2022/05/10 13:20:21;;;;;;;;;;;;;;;;;;5055529;28;20016;-80
2022/05/10 13:23:02;;;;;;;;;;;;;;;;;;5055464;28;20349;-81
2022/05/10 13:25:34;;;;;;;;;;;;;;;;;;5057910;28;19900;-79
2022/05/10 13:28:07;;;;;;;;;;;;;;;;;;5056366;28;19917;-81
2022/05/10 13:30:33;;;;;;;;;;;;;;;;;;5055459;28;19912;-81
2022/05/10 13:32:58;;;;;;;;;;;;;;;;;;5055323;28;19920;-81
2022/05/10 13:35:24;;;;;;;;;;;;;;;;;;5055318;28;19916;-80
2022/05/10 13:38:00;;;;;;;;;;;;;;;;;;5056852;28;19913;-81
2022/05/10 13:40:42;;;;;;;;;;;;;;;;;;5038929;28;20311;-80
2022/05/10 13:43:10;;;;;;;;;;;;;;;;;;5055136;28;19917;-80
2022/05/10 13:45:36;;;;;;;;;;;;;;;;;;5058315;28;19912;-79
2022/05/10 13:48:05;;;;;;;;;;;;;;;;;;5047001;28;19975;-80
2022/05/10 13:50:30;;;;;;;;;;;;;;;;;;5017601;28;19913;-78
2022/05/10 13:52:57;;;;;;;;;;;;;;;;;;5034351;28;20285;-80
2022/05/10 13:55:23;;;;;;;;;;;;;;;;;;5035195;28;19924;-80
2022/05/10 13:57:52;;;;;;;;;;;;;;;;;;5035329;28;19913;-79
2022/05/10 14:00:25;;;;;;;;;;;;;;;;;;5034014;28;19913;-80
2022/05/10 14:02:54;;;;;;;;;;;;;;;;;;5034523;28;19967;-80
2022/05/10 14:05:21;;;;;;;;;;;;;;;;;;5040874;28;19913;-80
2022/05/10 14:07:48;;;;;;;;;;;;;;;;;;5034890;28;19913;-80
2022/05/10 14:10:17;;;;;;;;;;;;;;;;;;5034837;28;19920;-80
2022/05/10 14:12:46;;;;;;;;;;;;;;;;;;5034435;28;20373;-80
2022/05/10 14:15:17;;;;;;;;;;;;;;;;;;5034837;28;19936;-79
2022/05/10 14:17:45;;;;;;;;;;;;;;;;;;5035301;28;19971;-80
2022/05/10 14:20:24;;;;;;;;;;;;;;;;;;5034172;28;19913;-79
2022/05/10 14:22:57;;;;;;;;;;;;;;;;;;5034959;28;19919;-79
2022/05/10 14:25:29;;;;;;;;;;;;;;;;;;5038815;28;19976;-81
2022/05/10 14:27:58;;;;;;;;;;;;;;;;;;5017987;28;19913;-80
2022/05/10 14:30:24;;;;;;;;;;;;;;;;;;5034648;28;19913;-80
2022/05/10 14:32:49;;;;;;;;;;;;;;;;;;5034933;28;19920;-81
2022/05/10 14:35:25;;;;;;;;;;;;;;;;;;5034184;28;20087;-81
2022/05/10 14:37:51;;;;;;;;;;;;;;;;;;5034304;28;19992;-81
2022/05/10 14:40:26;;;;;;;;;;;;;;;;;;5034107;28;19913;-82
2022/05/10 14:43:04;;;;;;;;;;;;;;;;;;5016722;28;19952;-79
2022/05/10 14:45:33;;;;;;;;;;;;;;;;;;5021563;28;19913;-82
2022/05/10 14:47:58;;;;;;;;;;;;;;;;;;5035831;28;19920;-79
2022/05/10 14:50:42;;;;;;;;;;;;;;;;;;5034057;28;19913;-80
2022/05/10 14:53:35;;;;;;;;;;;;;;;;;;5033736;28;19917;-79
2022/05/10 14:56:00;;;;;;;;;;;;;;;;;;5048454;28;19924;-79
2022/05/10 14:58:29;;;;;;;;;;;;;;;;;;5035130;28;20377;-76
2022/05/10 15:01:10;;;;;;;;;;;;;;;;;;5038687;28;19940;-78
2022/05/10 15:03:37;;;;;;;;;;;;;;;;;;5034980;28;20242;-79
2022/05/10 15:06:02;;;;;;;;;;;;;;;;;;5039202;28;19913;-80
2022/05/10 15:08:28;;;;;;;;;;;;;;;;;;5034434;28;19913;-79
2022/05/10 15:10:55;;;;;;;;;;;;;;;;;;5033982;28;20277;-79
2022/05/10 15:13:22;;;;;;;;;;;;;;;;;;5018075;28;19978;-80
2022/05/10 15:15:48;;;;;;;;;;;;;;;;;;5033309;28;19913;-80
2022/05/10 15:21:04;;;;;;;;;;;;;;;;;;5032880;28;19952;-78
2022/05/10 15:23:29;;;;;;;;;;;;;;;;;;5034257;28;19964;-79
2022/05/10 15:25:54;;;;;;;;;;;;;;;;;;5040510;28;19913;-77
2022/05/10 15:28:20;;;;;;;;;;;;;;;;;;5035954;28;19913;-80
2022/05/10 15:30:45;;;;;;;;;;;;;;;;;;5034444;28;19919;-79
2022/05/10 15:33:10;;;;;;;;;;;;;;;;;;5033828;28;20304;-79
2022/05/10 15:35:36;;;;;;;;;;;;;;;;;;5032420;28;20319;-78
2022/05/10 15:38:01;;;;;;;;;;;;;;;;;;5033761;28;19913;-79
2022/05/10 15:40:27;;;;;;;;;;;;;;;;;;5032623;28;20019;-79
2022/05/10 15:42:52;;;;;;;;;;;;;;;;;;5032804;28;19963;-79
2022/05/10 15:45:18;;;;;;;;;;;;;;;;;;5033578;28;19913;-80
2022/05/10 15:47:44;;;;;;;;;;;;;;;;;;5032941;28;20227;-79
2022/05/10 15:50:12;;;;;;;;;;;;;;;;;;5033512;28;19952;-78
2022/05/10 15:52:37;;;;;;;;;;;;;;;;;;5015459;28;19917;-78
2022/05/10 15:55:03;;;;;;;;;;;;;;;;;;5033687;28;20346;-79
2022/05/10 15:57:28;;;;;;;;;;;;;;;;;;5037398;28;19913;-79
2022/05/10 15:59:53;;;;;;;;;;;;;;;;;;5020515;28;19963;-79
2022/05/10 16:02:20;;;;;;;;;;;;;;;;;;5036868;28;20391;-79
2022/05/10 16:04:46;;;;;;;;;;;;;;;;;;5055698;28;20315;-77
2022/05/10 16:07:12;;;;;;;;;;;;;;;;;;5041157;28;19920;-80
2022/05/10 16:09:37;;;;;;;;;;;;;;;;;;5037202;28;19917;-79
2022/05/10 16:12:03;;;;;;;;;;;;;;;;;;5019805;28;19912;-79
2022/05/10 16:14:28;;;;;;;;;;;;;;;;;;5038174;28;19913;-82
2022/05/10 16:16:54;;;;;;;;;;;;;;;;;;5037906;28;19995;-80
2022/05/10 16:19:19;;;;;;;;;;;;;;;;;;5036886;28;19913;-80
2022/05/10 16:21:45;;;;;;;;;;;;;;;;;;5020389;28;20261;-79
2022/05/10 16:24:10;;;;;;;;;;;;;;;;;;5038077;28;19920;-78
2022/05/10 16:32:04;;;;;;;;;;;;;;;;;;5035971;28;19970;-79
2022/05/10 16:34:29;;;;;;;;;;;;;;;;;;5037621;28;19917;-78
2022/05/10 16:36:54;;;;;;;;;;;;;;;;;;5037614;28;20366;-80
2022/05/10 16:39:20;;;;;;;;;;;;;;;;;;5052679;28;19913;-78
2022/05/10 16:41:46;;;;;;;;;;;;;;;;;;5037703;28;19913;-79
2022/05/10 16:44:13;;;;;;;;;;;;;;;;;;5036184;28;20020;-79
2022/05/10 16:46:38;;;;;;;;;;;;;;;;;;5023518;28;19916;-79
2022/05/10 16:49:06;;;;;;;;;;;;;;;;;;5037674;28;19913;-79
2022/05/10 16:51:32;;;;;;;;;;;;;;;;;;5036298;28;19921;-80
2022/05/10 16:53:59;;;;;;;;;;;;;;;;;;5037548;28;19913;-80
2022/05/10 16:56:25;;;;;;;;;;;;;;;;;;5036231;28;19943;-79
2022/05/10 16:58:51;;;;;;;;;;;;;;;;;;5037130;28;19936;-78
2022/05/10 17:01:16;;;;;;;;;;;;;;;;;;5036573;28;19913;-79
2022/05/10 17:03:42;;;;;;;;;;;;;;;;;;5037234;28;19936;-80
2022/05/10 17:06:07;;;;;;;;;;;;;;;;;;5037759;28;19935;-79
2022/05/10 17:08:33;;;;;;;;;;;;;;;;;;5038293;28;19909;-81
2022/05/10 17:10:58;;;;;;;;;;;;;;;;;;5019431;28;19970;-80
2022/05/10 17:13:24;;;;;;;;;;;;;;;;;;5036868;28;19913;-79
2022/05/10 17:15:49;;;;;;;;;;;;;;;;;;5035774;28;20289;-79
2022/05/10 17:18:15;;;;;;;;;;;;;;;;;;5036987;28;19921;-78
2022/05/10 17:20:42;;;;;;;;;;;;;;;;;;5036930;28;20314;-80
2022/05/10 17:23:07;;;;;;;;;;;;;;;;;;5035864;28;19913;-77
2022/05/10 17:25:34;;;;;;;;;;;;;;;;;;5037556;28;19913;-78
2022/05/10 17:30:34;;;;;;;;;;;;;;;;;;5036793;28;19925;-78
2022/05/10 17:33:00;;;;;;;;;;;;;;;;;;5019273;28;20341;-78
2022/05/10 17:35:25;;;;;;;;;;;;;;;;;;5035667;28;20309;-78
2022/05/10 17:37:50;;;;;;;;;;;;;;;;;;5036860;28;20333;-78
2022/05/10 17:40:16;;;;;;;;;;;;;;;;;;5036615;28;19915;-79
2022/05/10 17:42:41;;;;;;;;;;;;;;;;;;5035143;28;20014;-78
2022/05/10 17:45:07;;;;;;;;;;;;;;;;;;5019093;28;20011;-79